createdAt,value
2018-12-10T00:01:38.437Z,77.07
2018-12-10T00:04:06.444Z,76.42
2018-12-10T00:06:34.395Z,76.90
2018-12-10T00:09:03.000Z,76.10
2018-12-10T00:11:30.963Z,75.43
2018-12-10T00:13:58.899Z,75.47
2018-12-10T00:16:26.829Z,75.42
2018-12-10T00:18:54.772Z,73.30
2018-12-10T00:21:22.733Z,74.87
2018-12-10T00:23:50.680Z,75.28
2018-12-10T00:26:19.977Z,75.21
2018-12-10T00:28:47.936Z,75.89
2018-12-10T00:31:15.891Z,77.10
2018-12-10T00:33:43.934Z,78.14
2018-12-10T00:36:11.840Z,78.28
2018-12-10T00:38:39.801Z,78.41
2018-12-10T00:41:07.836Z,77.11
2018-12-10T00:43:35.788Z,77.17
2018-12-10T00:46:03.753Z,77.13
2018-12-10T00:48:31.726Z,77.57
2018-12-10T00:50:59.702Z,77.71
2018-12-10T00:53:27.669Z,77.74
2018-12-10T00:55:55.628Z,77.47
2018-12-10T00:58:23.609Z,76.97
2018-12-10T01:00:51.734Z,77.50
2018-12-10T01:03:19.782Z,77.57
2018-12-10T01:05:47.730Z,76.52
2018-12-10T01:08:15.767Z,76.29
2018-12-10T01:10:44.022Z,76.42
2018-12-10T01:13:11.953Z,76.55
2018-12-10T01:15:39.941Z,76.48
2018-12-10T01:18:07.884Z,76.94
2018-12-10T01:20:35.943Z,77.14
2018-12-10T01:23:04.692Z,76.75
2018-12-10T01:25:32.638Z,76.53
2018-12-10T01:28:00.821Z,76.91
2018-12-10T01:30:28.803Z,76.94
2018-12-10T01:32:56.737Z,77.09
2018-12-10T01:35:25.850Z,76.82
2018-12-10T01:37:53.893Z,76.71
2018-12-10T01:40:21.899Z,77.06
2018-12-10T01:42:49.831Z,77.29
2018-12-10T01:45:17.818Z,76.76
2018-12-10T01:47:45.820Z,76.86
2018-12-10T01:50:13.793Z,76.55
2018-12-10T01:52:41.834Z,76.60
2018-12-10T01:55:09.865Z,77.17
2018-12-10T01:57:37.832Z,76.84
2018-12-10T02:00:07.158Z,77.15
2018-12-10T02:02:35.143Z,76.49
2018-12-10T02:05:03.129Z,76.53
2018-12-10T02:07:31.198Z,76.12
2018-12-10T02:09:59.139Z,76.20
2018-12-10T02:12:27.109Z,76.42
2018-12-10T02:14:55.071Z,76.91
2018-12-10T02:17:23.571Z,77.39
2018-12-10T02:19:51.564Z,76.87
2018-12-10T02:22:19.794Z,76.70
2018-12-10T02:24:47.758Z,75.97
2018-12-10T02:27:16.897Z,75.88
2018-12-10T02:29:44.869Z,75.65
2018-12-10T02:32:12.960Z,75.78
2018-12-10T02:34:40.905Z,75.21
2018-12-10T02:37:08.918Z,75.56
2018-12-10T02:39:38.002Z,75.77
2018-12-10T02:42:05.962Z,76.11
2018-12-10T02:44:33.943Z,76.49
2018-12-10T02:47:02.037Z,76.69
2018-12-10T02:49:29.974Z,76.88
2018-12-10T02:51:58.024Z,77.00
2018-12-10T02:54:26.097Z,76.58
2018-12-10T02:56:54.196Z,76.30
2018-12-10T02:59:22.274Z,76.22
2018-12-10T03:01:50.649Z,76.19
2018-12-10T03:04:18.626Z,76.77
2018-12-10T03:06:47.399Z,75.55
2018-12-10T03:09:15.337Z,75.93
2018-12-10T03:11:43.499Z,75.52
2018-12-10T03:14:11.495Z,76.19
2018-12-10T03:16:39.463Z,75.86
2018-12-10T03:19:07.435Z,74.88
2018-12-10T03:21:35.420Z,75.22
2018-12-10T03:24:03.928Z,75.31
2018-12-10T03:26:31.926Z,75.58
2018-12-10T03:28:59.869Z,75.51
2018-12-10T03:31:27.963Z,75.44
2018-12-10T03:33:55.917Z,75.85
2018-12-10T03:36:23.944Z,75.93
2018-12-10T03:38:51.876Z,76.20
2018-12-10T03:41:19.826Z,77.13
2018-12-10T03:43:47.802Z,77.65
2018-12-10T03:46:15.783Z,78.24
2018-12-10T03:48:44.727Z,78.80
2018-12-10T03:51:12.773Z,79.02
2018-12-10T03:53:40.701Z,78.71
2018-12-10T03:56:08.745Z,78.55
2018-12-10T03:58:36.691Z,78.30
2018-12-10T04:01:04.655Z,78.43
2018-12-10T04:03:33.302Z,78.58
2018-12-10T04:06:02.193Z,78.79
2018-12-10T04:08:30.126Z,78.50
2018-12-10T04:10:58.193Z,78.81
2018-12-10T04:13:26.196Z,78.29
2018-12-10T04:15:54.157Z,78.71
2018-12-10T04:18:22.429Z,78.51
2018-12-10T04:20:50.439Z,78.22
2018-12-10T04:23:18.406Z,78.01
2018-12-10T04:25:46.435Z,78.00
2018-12-10T04:28:16.613Z,77.42
2018-12-10T04:30:44.602Z,77.71
2018-12-10T04:33:12.625Z,77.01
2018-12-10T04:35:40.600Z,77.26
2018-12-10T04:38:08.574Z,80.36
2018-12-10T04:40:36.528Z,76.43
2018-12-10T04:43:04.921Z,77.17
2018-12-10T04:45:33.046Z,77.18
2018-12-10T04:48:01.220Z,77.11
2018-12-10T04:50:29.318Z,77.01
2018-12-10T04:52:57.486Z,77.15
2018-12-10T04:55:25.500Z,76.97
2018-12-10T04:57:53.518Z,76.80
2018-12-10T05:00:21.629Z,77.01
2018-12-10T05:02:49.584Z,76.32
2018-12-10T05:05:17.609Z,76.20
2018-12-10T05:07:45.580Z,76.82
2018-12-10T05:10:13.582Z,76.33
2018-12-10T05:12:41.564Z,76.77
2018-12-10T05:15:09.618Z,76.87
2018-12-10T05:17:37.557Z,76.77
2018-12-10T05:20:05.797Z,76.83
2018-12-10T05:22:33.791Z,76.71
2018-12-10T05:25:01.737Z,76.99
2018-12-10T05:27:29.781Z,76.84
2018-12-10T05:29:57.725Z,77.07
2018-12-10T05:32:25.666Z,77.35
2018-12-10T05:34:53.676Z,78.05
2018-12-10T05:37:21.683Z,78.82
2018-12-10T05:39:49.627Z,80.26
2018-12-10T05:42:17.583Z,82.18
2018-12-10T05:44:45.525Z,82.21
2018-12-10T05:47:13.486Z,82.79
2018-12-10T05:49:41.455Z,82.79
2018-12-10T05:52:09.398Z,81.99
2018-12-10T05:54:37.383Z,81.44
2018-12-10T05:57:05.371Z,80.98
2018-12-10T05:59:33.332Z,79.86
2018-12-10T06:02:01.299Z,80.05
2018-12-10T06:04:29.246Z,80.23
2018-12-10T06:06:57.725Z,81.64
2018-12-10T06:09:25.650Z,82.54
2018-12-10T06:11:53.603Z,82.61
2018-12-10T06:14:21.565Z,83.43
2018-12-10T06:16:49.550Z,82.78
2018-12-10T06:19:17.599Z,81.81
2018-12-10T06:21:45.967Z,81.66
2018-12-10T06:24:13.978Z,81.17
2018-12-10T06:26:41.932Z,80.57
2018-12-10T06:29:09.873Z,80.89
2018-12-10T06:31:37.849Z,80.51
2018-12-10T06:34:05.807Z,80.18
2018-12-10T06:36:33.782Z,80.14
2018-12-10T06:39:01.722Z,79.79
2018-12-10T06:41:30.626Z,79.09
2018-12-10T06:43:58.759Z,85.24
2018-12-10T06:46:26.711Z,81.05
2018-12-10T06:48:54.671Z,78.80
2018-12-10T06:51:22.622Z,78.76
2018-12-10T06:53:50.882Z,79.01
2018-12-10T06:56:18.839Z,78.53
2018-12-10T06:58:46.801Z,78.07
2018-12-10T07:01:14.860Z,78.30
2018-12-10T07:03:45.130Z,78.49
2018-12-10T07:06:13.122Z,78.79
2018-12-10T07:08:41.136Z,79.04
2018-12-10T07:11:09.082Z,79.45
2018-12-10T07:13:37.630Z,79.04
2018-12-10T07:16:05.666Z,78.91
2018-12-10T07:18:33.615Z,78.55
2018-12-10T07:21:01.657Z,78.33
2018-12-10T07:23:29.965Z,77.94
2018-12-10T07:25:58.227Z,77.65
2018-12-10T07:28:26.192Z,76.23
2018-12-10T07:30:54.179Z,76.11
2018-12-10T07:33:22.112Z,76.94
2018-12-10T07:35:50.236Z,76.46
2018-12-10T07:38:18.517Z,76.42
2018-12-10T07:40:46.505Z,76.23
2018-12-10T07:43:14.607Z,76.68
2018-12-10T07:45:42.568Z,76.84
2018-12-10T07:48:11.299Z,76.74
2018-12-10T07:50:39.454Z,77.01
2018-12-10T07:53:07.478Z,77.37
2018-12-10T07:55:35.427Z,77.61
2018-12-10T07:58:03.391Z,77.42
2018-12-10T08:00:31.329Z,77.13
2018-12-10T08:02:59.622Z,77.41
2018-12-10T08:05:28.424Z,77.32
2018-12-10T08:07:56.382Z,77.43
2018-12-10T08:10:24.402Z,77.54
2018-12-10T08:12:52.395Z,77.29
2018-12-10T08:15:20.399Z,76.81
2018-12-10T08:17:48.363Z,76.55
2018-12-10T08:20:16.358Z,76.82
2018-12-10T08:22:44.288Z,76.71
2018-12-10T08:25:12.270Z,76.74
2018-12-10T08:27:40.223Z,76.03
2018-12-10T08:30:08.266Z,76.81
2018-12-10T08:32:36.662Z,76.16
2018-12-10T08:35:04.671Z,76.68
2018-12-10T08:37:32.603Z,76.28
2018-12-10T08:40:01.022Z,75.83
2018-12-10T08:42:29.094Z,75.72
2018-12-10T08:44:57.134Z,75.50
2018-12-10T08:47:25.093Z,75.78
2018-12-10T08:49:53.041Z,76.08
2018-12-10T08:52:20.993Z,76.05
2018-12-10T08:54:48.952Z,76.16
2018-12-10T08:57:17.008Z,76.32
2018-12-10T08:59:45.285Z,78.45
2018-12-10T09:02:13.213Z,76.61
2018-12-10T09:04:41.206Z,76.60
2018-12-10T09:07:09.171Z,76.52
2018-12-10T09:09:37.298Z,76.47
2018-12-10T09:12:05.358Z,76.43
2018-12-10T09:14:33.313Z,76.25
2018-12-10T09:17:01.250Z,75.46
2018-12-10T09:19:29.981Z,76.16
2018-12-10T09:21:57.930Z,75.95
2018-12-10T09:24:25.905Z,75.96
2018-12-10T09:26:55.015Z,75.55
2018-12-10T09:29:23.933Z,75.69
2018-12-10T09:31:51.973Z,75.49
2018-12-10T09:34:20.721Z,75.94
2018-12-10T09:36:48.713Z,75.95
2018-12-10T09:39:18.091Z,75.84
2018-12-10T09:41:46.047Z,76.20
2018-12-10T09:44:13.994Z,76.78
2018-12-10T09:46:41.942Z,76.57
2018-12-10T09:49:10.351Z,76.71
2018-12-10T09:51:38.545Z,76.80
2018-12-10T09:54:06.547Z,76.87
2018-12-10T09:56:34.473Z,77.31
2018-12-10T09:59:03.516Z,76.78
2018-12-10T10:01:31.653Z,76.78
2018-12-10T10:03:59.610Z,75.52
2018-12-10T10:06:27.753Z,75.98
2018-12-10T10:08:55.718Z,76.45
2018-12-10T10:11:23.682Z,76.42
2018-12-10T10:13:51.657Z,76.58
2018-12-10T10:16:19.661Z,76.26
2018-12-10T10:18:47.599Z,76.28
2018-12-10T10:21:15.651Z,76.28
2018-12-10T10:23:43.606Z,76.37
2018-12-10T10:26:11.539Z,76.19
2018-12-10T10:28:39.545Z,75.97
2018-12-10T10:31:08.048Z,76.20
2018-12-10T10:33:35.990Z,75.86
2018-12-10T10:36:03.964Z,75.23
2018-12-10T10:38:31.969Z,74.72
2018-12-10T10:40:59.946Z,74.67
2018-12-10T10:43:27.942Z,74.74
2018-12-10T10:45:56.088Z,74.65
2018-12-10T10:48:24.021Z,74.52
2018-12-10T10:50:52.029Z,74.57
2018-12-10T10:53:19.975Z,74.27
2018-12-10T10:55:48.868Z,74.55
2018-12-10T10:58:16.970Z,74.30
2018-12-10T11:03:48.137Z,74.91
2018-12-10T11:06:16.766Z,74.95
2018-12-10T11:08:44.693Z,74.04
2018-12-10T11:11:12.677Z,74.42
2018-12-10T11:13:40.665Z,73.98
2018-12-10T11:16:09.002Z,73.20
2018-12-10T11:18:37.007Z,73.35
2018-12-10T11:21:05.292Z,73.48
2018-12-10T11:23:33.238Z,73.21
2018-12-10T11:26:01.201Z,73.67
2018-12-10T11:28:29.186Z,73.69
2018-12-10T11:30:57.257Z,73.03
2018-12-10T11:33:25.166Z,73.42
2018-12-10T11:35:53.128Z,73.55
2018-12-10T11:38:21.121Z,73.03
2018-12-10T11:40:49.089Z,73.28
2018-12-10T11:43:17.072Z,73.04
2018-12-10T11:45:45.087Z,72.73
2018-12-10T11:48:13.175Z,73.27
2018-12-10T11:50:41.305Z,72.78
2018-12-10T11:53:09.262Z,72.62
2018-12-10T11:55:37.257Z,72.59
2018-12-10T11:58:05.211Z,72.18
2018-12-10T12:00:33.181Z,72.50
2018-12-10T12:03:01.146Z,71.45
2018-12-10T12:05:29.101Z,71.69
2018-12-10T12:07:57.098Z,71.85
2018-12-10T12:10:25.043Z,71.37
2018-12-10T12:12:52.983Z,71.67
2018-12-10T12:15:20.948Z,72.36
2018-12-10T12:17:48.898Z,72.18
2018-12-10T12:20:16.890Z,72.03
2018-12-10T12:22:46.250Z,71.56
2018-12-10T12:25:14.327Z,71.85
2018-12-10T12:27:42.360Z,71.75
2018-12-10T12:30:10.374Z,72.20
2018-12-10T12:32:38.327Z,72.33
2018-12-10T12:35:06.334Z,72.82
2018-12-10T12:37:34.299Z,72.75
2018-12-10T12:40:03.236Z,73.05
2018-12-10T12:42:31.347Z,72.61
2018-12-10T12:44:59.258Z,73.14
2018-12-10T12:47:27.345Z,72.40
2018-12-10T12:49:55.306Z,71.11
2018-12-10T12:52:23.266Z,71.87
2018-12-10T12:54:51.193Z,71.82
2018-12-10T12:57:19.150Z,72.53
2018-12-10T12:59:47.084Z,72.97
2018-12-10T13:02:15.046Z,73.29
2018-12-10T13:04:43.668Z,73.49
2018-12-10T13:07:11.672Z,73.76
2018-12-10T13:09:39.670Z,73.75
2018-12-10T13:12:07.687Z,74.02
2018-12-10T13:14:35.677Z,73.89
2018-12-10T13:17:03.657Z,73.77
2018-12-10T13:19:31.652Z,74.07
2018-12-10T13:21:59.926Z,74.20
2018-12-10T13:24:27.891Z,74.24
2018-12-10T13:26:55.861Z,74.50
2018-12-10T13:29:31.055Z,75.29
2018-12-10T13:31:53.753Z,75.17
2018-12-10T13:34:21.713Z,75.46
2018-12-10T13:36:49.661Z,75.65
2018-12-10T13:39:17.612Z,75.79
2018-12-10T13:41:45.586Z,75.85
2018-12-10T13:44:13.658Z,76.57
2018-12-10T13:46:41.646Z,76.56
2018-12-10T13:49:09.584Z,76.68
2018-12-10T13:51:37.567Z,76.68
2018-12-10T13:54:06.200Z,76.58
2018-12-10T13:56:35.055Z,76.83
2018-12-10T13:59:04.450Z,77.00
2018-12-10T14:01:32.437Z,77.29
2018-12-10T14:04:02.017Z,77.35
2018-12-10T14:06:29.993Z,77.52
2018-12-10T14:08:57.945Z,77.80
2018-12-10T14:11:25.904Z,77.84
2018-12-10T14:13:54.627Z,77.35
2018-12-10T14:16:23.021Z,77.71
2018-12-10T14:18:51.605Z,76.99
2018-12-10T14:21:19.783Z,77.13
2018-12-10T14:23:47.937Z,77.39
2018-12-10T14:26:16.588Z,77.11
2018-12-10T14:28:45.074Z,77.64
2018-12-10T14:31:13.064Z,77.12
2018-12-10T14:33:41.017Z,78.10
2018-12-10T14:36:09.226Z,79.06
2018-12-10T14:38:38.600Z,80.52
2018-12-10T14:41:07.373Z,81.09
2018-12-10T14:43:35.604Z,81.41
2018-12-10T14:46:03.925Z,82.96
2018-12-10T14:48:31.923Z,83.89
2018-12-10T14:50:59.940Z,84.58
2018-12-10T14:53:27.883Z,84.92
2018-12-10T14:55:56.247Z,84.29
2018-12-10T14:58:24.185Z,84.91
2018-12-10T15:00:52.519Z,85.61
2018-12-10T15:03:20.503Z,84.10
2018-12-10T15:05:48.464Z,84.79
2018-12-10T15:08:16.506Z,83.44
2018-12-10T15:10:44.501Z,82.29
2018-12-10T15:13:12.528Z,82.19
2018-12-10T15:15:40.457Z,81.32
2018-12-10T15:18:08.454Z,80.92
2018-12-10T15:20:36.434Z,80.75
2018-12-10T15:23:04.374Z,81.48
2018-12-10T15:25:32.338Z,80.83
2018-12-10T15:28:00.273Z,80.73
2018-12-10T15:30:28.369Z,80.01
2018-12-10T15:32:56.285Z,79.95
2018-12-10T15:35:24.888Z,80.41
2018-12-10T15:37:52.850Z,79.92
2018-12-10T15:40:20.816Z,79.53
2018-12-10T15:42:48.865Z,80.54
2018-12-10T15:45:17.089Z,82.25
2018-12-10T15:47:45.142Z,82.31
2018-12-10T15:50:13.127Z,82.65
2018-12-10T15:52:41.098Z,82.38
2018-12-10T15:55:09.129Z,83.02
2018-12-10T15:57:37.073Z,83.58
2018-12-10T16:00:07.697Z,83.13
2018-12-10T16:02:35.672Z,83.18
2018-12-10T16:05:04.601Z,83.92
2018-12-10T16:07:33.065Z,84.60
2018-12-10T16:10:01.105Z,84.44
2018-12-10T16:12:29.032Z,84.50
2018-12-10T16:14:57.029Z,84.65
2018-12-10T16:17:25.449Z,85.09
2018-12-10T16:19:53.385Z,84.57
2018-12-10T16:22:21.381Z,84.49
2018-12-10T16:24:49.489Z,84.33
2018-12-10T16:27:17.726Z,84.26
2018-12-10T16:29:45.781Z,83.09
2018-12-10T16:32:13.761Z,82.95
2018-12-10T16:34:41.740Z,83.08
2018-12-10T16:37:09.718Z,83.08
2018-12-10T16:39:37.756Z,82.89
2018-12-10T16:42:06.021Z,83.28
2018-12-10T16:44:34.126Z,82.70
2018-12-10T16:47:02.332Z,83.27
2018-12-10T16:49:31.072Z,83.21
2018-12-10T16:51:59.243Z,83.25
2018-12-10T16:54:27.950Z,83.18
2018-12-10T16:56:55.957Z,83.24
2018-12-10T16:59:23.952Z,82.22
2018-12-10T17:01:52.082Z,81.44
2018-12-10T17:04:20.527Z,81.81
2018-12-10T17:06:49.209Z,81.47
2018-12-10T17:09:17.642Z,82.10
2018-12-10T17:11:45.682Z,81.05
2018-12-10T17:14:13.988Z,84.66
2018-12-10T17:16:41.947Z,82.88
2018-12-10T17:19:09.953Z,82.74
2018-12-10T17:21:37.968Z,78.00
2018-12-10T17:24:06.099Z,77.92
2018-12-10T17:26:34.468Z,78.35
2018-12-10T17:29:02.460Z,78.58
2018-12-10T17:31:30.409Z,78.09
2018-12-10T17:33:59.219Z,78.06
2018-12-10T17:36:27.304Z,77.64
2018-12-10T17:38:55.245Z,77.64
2018-12-10T17:41:24.256Z,77.26
2018-12-10T17:43:53.074Z,77.02
2018-12-10T17:46:21.032Z,76.68
2018-12-10T17:48:48.998Z,76.51
2018-12-10T17:51:17.021Z,76.99
2018-12-10T17:53:45.235Z,77.37
2018-12-10T17:56:13.285Z,77.29
2018-12-10T17:58:41.674Z,77.46
2018-12-10T18:01:09.779Z,77.20
2018-12-10T18:03:37.724Z,77.83
2018-12-10T18:06:05.689Z,77.88
2018-12-10T18:08:33.637Z,78.26
2018-12-10T18:11:01.622Z,77.72
2018-12-10T18:13:29.731Z,77.58
2018-12-10T18:15:57.674Z,77.45
2018-12-10T18:18:25.674Z,77.48
2018-12-10T18:20:53.697Z,77.70
2018-12-10T18:23:21.701Z,78.21
2018-12-10T18:25:49.644Z,77.35
2018-12-10T18:28:17.679Z,76.85
2018-12-10T18:30:45.903Z,76.14
2018-12-10T18:33:14.653Z,76.40
2018-12-10T18:35:42.871Z,75.62
2018-12-10T18:38:11.477Z,75.81
2018-12-10T18:40:39.554Z,76.14
2018-12-10T18:43:08.576Z,75.84
2018-12-10T18:45:38.317Z,75.66
2018-12-10T18:48:06.362Z,75.66
2018-12-10T18:50:34.449Z,76.10
2018-12-10T18:53:02.470Z,76.41
2018-12-10T18:55:31.453Z,75.94
2018-12-10T18:57:59.411Z,75.81
2018-12-10T19:00:27.625Z,76.04
2018-12-10T19:02:55.631Z,76.23
2018-12-10T19:05:25.547Z,76.00
2018-12-10T19:07:53.737Z,75.94
2018-12-10T19:10:21.689Z,75.87
2018-12-10T19:12:49.740Z,76.26
2018-12-10T19:15:17.743Z,76.68
2018-12-10T19:17:45.883Z,76.82
2018-12-10T19:20:13.968Z,76.83
2018-12-10T19:22:41.931Z,77.45
2018-12-10T19:25:09.933Z,77.35
2018-12-10T19:27:38.160Z,77.80
2018-12-10T19:30:06.987Z,77.93
2018-12-10T19:32:34.969Z,78.43
2018-12-10T19:35:03.127Z,78.96
2018-12-10T19:37:31.112Z,79.51
2018-12-10T19:39:59.215Z,80.06
2018-12-10T19:42:27.573Z,79.76
2018-12-10T19:44:55.769Z,80.22
2018-12-10T19:47:23.779Z,80.15
2018-12-10T19:49:52.360Z,80.55
2018-12-10T19:52:21.007Z,80.67
2018-12-10T19:54:49.593Z,80.92
2018-12-10T19:57:17.549Z,80.59
2018-12-10T19:59:45.605Z,81.09
2018-12-10T20:02:14.067Z,80.65
2018-12-10T20:04:42.030Z,80.61
2018-12-10T20:07:10.049Z,80.57
2018-12-10T20:09:38.095Z,80.33
2018-12-10T20:12:06.404Z,80.83
2018-12-10T20:14:34.673Z,80.47
2018-12-10T20:17:03.265Z,80.99
2018-12-10T20:19:31.213Z,80.66
2018-12-10T20:21:59.191Z,80.80
2018-12-10T20:24:27.152Z,80.61
2018-12-10T20:26:55.313Z,80.94
2018-12-10T20:29:23.792Z,80.54
2018-12-10T20:31:51.774Z,79.87
2018-12-10T20:34:20.095Z,79.40
2018-12-10T20:36:48.243Z,79.89
2018-12-10T20:39:16.313Z,79.90
2018-12-10T20:41:44.352Z,79.87
2018-12-10T20:44:12.329Z,79.50
2018-12-10T20:46:40.274Z,79.50
2018-12-10T20:49:08.333Z,79.66
2018-12-10T20:51:36.446Z,79.62
2018-12-10T20:54:04.890Z,80.20
2018-12-10T20:56:32.823Z,80.48
2018-12-10T20:59:01.678Z,80.78
2018-12-10T21:01:29.633Z,80.94
2018-12-10T21:03:57.740Z,80.72
2018-12-10T21:06:31.484Z,81.01
2018-12-10T21:08:59.869Z,80.87
2018-12-10T21:11:27.957Z,80.66
2018-12-10T21:13:55.924Z,80.77
2018-12-10T21:16:24.219Z,80.57
2018-12-10T21:18:52.230Z,80.37
2018-12-10T21:21:20.336Z,80.33
2018-12-10T21:23:48.715Z,80.19
2018-12-10T21:26:16.818Z,80.19
2018-12-10T21:28:45.652Z,86.34
2018-12-10T21:31:14.097Z,82.84
2018-12-10T21:33:42.132Z,81.41
2018-12-10T21:36:10.760Z,76.85
2018-12-10T21:38:38.824Z,77.03
2018-12-10T21:41:06.832Z,79.09
2018-12-10T21:43:34.857Z,77.03
2018-12-10T21:46:02.829Z,77.42
2018-12-10T21:48:30.840Z,77.53
2018-12-10T21:50:58.940Z,76.90
2018-12-10T21:53:27.372Z,77.35
2018-12-10T21:55:55.339Z,77.71
2018-12-10T21:58:23.498Z,78.45
2018-12-10T22:00:51.556Z,78.83
2018-12-10T22:03:19.935Z,78.29
2018-12-10T22:05:47.972Z,78.64
2018-12-10T22:08:16.216Z,78.74
2018-12-10T22:10:44.181Z,78.87
2018-12-10T22:13:13.360Z,78.91
2018-12-10T22:15:42.231Z,78.75
2018-12-10T22:18:11.738Z,78.80
2018-12-10T22:20:42.698Z,78.34
2018-12-10T22:23:11.301Z,78.50
2018-12-10T22:25:40.231Z,78.38
2018-12-10T22:28:08.279Z,78.59
2018-12-10T22:30:36.754Z,78.42
2018-12-10T22:33:04.871Z,78.57
2018-12-10T22:35:32.800Z,78.53
2018-12-10T22:38:01.041Z,78.75
2018-12-10T22:40:29.996Z,78.55
2018-12-10T22:42:58.744Z,78.61
2018-12-10T22:45:26.957Z,78.73
2018-12-10T22:47:56.228Z,78.49
2018-12-10T22:50:24.444Z,78.85
2018-12-10T22:52:52.394Z,78.33
2018-12-10T22:55:20.441Z,78.68
2018-12-10T22:57:48.582Z,78.67
2018-12-10T23:00:16.723Z,78.61
2018-12-10T23:02:44.747Z,78.59
2018-12-10T23:05:12.949Z,78.52
2018-12-10T23:07:40.925Z,78.58
2018-12-10T23:10:09.167Z,78.64
2018-12-10T23:12:37.233Z,78.49
2018-12-10T23:15:05.307Z,78.25
2018-12-10T23:17:33.263Z,77.77
2018-12-10T23:20:01.203Z,77.24
2018-12-10T23:22:29.680Z,76.29
2018-12-10T23:24:57.629Z,75.82
2018-12-10T23:27:25.581Z,75.59
2018-12-10T23:29:53.543Z,74.68
2018-12-10T23:32:21.505Z,74.45
2018-12-10T23:34:49.546Z,73.75
2018-12-10T23:37:17.656Z,73.35
2018-12-10T23:39:45.590Z,73.18
2018-12-10T23:42:13.697Z,73.21
2018-12-10T23:44:47.691Z,73.40
2018-12-10T23:47:15.823Z,73.32
2018-12-10T23:49:44.765Z,73.14
2018-12-10T23:52:13.522Z,72.35
2018-12-10T23:54:41.520Z,72.08
2018-12-10T23:57:10.490Z,72.14
2018-12-10T23:59:38.624Z,71.98
